createdAt,value
2018-07-04T00:01:19.698Z,19.10
2018-07-04T00:04:03.866Z,19.10
2018-07-04T00:06:48.003Z,19.00
2018-07-04T00:09:32.226Z,18.90
2018-07-04T00:14:54.579Z,19.00
2018-07-04T00:17:38.606Z,18.90
2018-07-04T00:20:40.693Z,18.80
2018-07-04T00:23:24.629Z,18.80
2018-07-04T00:26:08.720Z,18.80
2018-07-04T00:28:52.874Z,18.80
2018-07-04T00:31:37.048Z,18.80
2018-07-04T00:34:21.364Z,18.70
2018-07-04T00:37:05.392Z,18.70
2018-07-04T00:39:49.241Z,18.60
2018-07-04T00:42:33.163Z,18.60
2018-07-04T00:45:17.163Z,18.60
2018-07-04T00:48:01.343Z,18.60
2018-07-04T00:50:46.681Z,18.70
2018-07-04T00:53:30.509Z,18.70
2018-07-04T00:56:14.412Z,18.60
2018-07-04T00:58:58.544Z,18.60
2018-07-04T01:01:42.635Z,18.60
2018-07-04T01:04:26.665Z,18.60
2018-07-04T01:07:11.016Z,18.60
2018-07-04T01:09:55.313Z,18.50
2018-07-04T01:12:39.267Z,18.40
2018-07-04T01:15:23.345Z,18.30
2018-07-04T01:18:07.371Z,18.30
2018-07-04T01:20:58.662Z,18.30
2018-07-04T01:23:42.581Z,18.30
2018-07-04T01:26:26.498Z,18.30
2018-07-04T01:29:10.381Z,18.20
2018-07-04T01:31:54.535Z,18.30
2018-07-04T01:34:39.437Z,18.20
2018-07-04T01:37:23.564Z,18.20
2018-07-04T01:40:07.625Z,18.20
2018-07-04T01:42:51.596Z,18.20
2018-07-04T01:45:35.517Z,18.10
2018-07-04T01:48:19.577Z,18.10
2018-07-04T01:51:03.655Z,18.10
2018-07-04T01:53:47.655Z,18.20
2018-07-04T01:56:31.691Z,18.10
2018-07-04T01:59:15.761Z,18.10
2018-07-04T02:01:59.906Z,18.10
2018-07-04T02:04:43.938Z,18.10
2018-07-04T02:07:28.018Z,18.00
2018-07-04T02:10:12.090Z,18.00
2018-07-04T02:12:56.094Z,18.00
2018-07-04T02:15:40.118Z,18.00
2018-07-04T02:18:24.249Z,17.90
2018-07-04T02:21:08.138Z,17.80
2018-07-04T02:23:52.222Z,17.90
2018-07-04T02:26:36.283Z,17.90
2018-07-04T02:29:20.464Z,17.80
2018-07-04T02:32:04.360Z,17.90
2018-07-04T02:34:48.412Z,17.80
2018-07-04T02:37:32.338Z,17.80
2018-07-04T02:40:17.054Z,17.70
2018-07-04T02:43:00.966Z,17.70
2018-07-04T02:45:44.903Z,17.60
2018-07-04T02:48:28.859Z,17.50
2018-07-04T02:51:12.942Z,17.40
2018-07-04T02:53:57.160Z,17.40
2018-07-04T02:59:19.458Z,17.40
2018-07-04T03:02:03.437Z,17.30
2018-07-04T03:04:47.627Z,19.00
2018-07-04T03:07:31.562Z,17.20
2018-07-04T03:10:15.545Z,17.20
2018-07-04T03:12:59.590Z,17.20
2018-07-04T03:15:43.743Z,17.20
2018-07-04T03:18:27.983Z,17.20
2018-07-04T03:21:12.061Z,17.20
2018-07-04T03:23:56.024Z,17.20
2018-07-04T03:26:40.190Z,17.20
2018-07-04T03:29:24.311Z,17.10
2018-07-04T03:32:08.389Z,17.20
2018-07-04T03:34:52.453Z,17.20
2018-07-04T03:37:36.947Z,17.20
2018-07-04T03:40:20.937Z,17.30
2018-07-04T03:43:05.115Z,17.20
2018-07-04T03:45:49.423Z,17.10
2018-07-04T03:48:33.662Z,17.20
2018-07-04T03:51:17.754Z,17.20
2018-07-04T03:54:01.872Z,17.30
2018-07-04T03:56:45.906Z,17.30
2018-07-04T03:59:30.036Z,17.30
2018-07-04T04:02:14.291Z,17.30
2018-07-04T04:04:58.772Z,17.30
2018-07-04T04:07:42.990Z,17.30
2018-07-04T04:10:27.440Z,17.40
2018-07-04T04:13:11.624Z,17.30
2018-07-04T04:15:55.692Z,17.40
2018-07-04T04:21:18.568Z,17.50
2018-07-04T04:24:03.071Z,17.50
2018-07-04T04:26:47.170Z,17.60
2018-07-04T04:29:31.515Z,17.70
2018-07-04T04:32:15.804Z,17.70
2018-07-04T04:35:00.217Z,17.80
2018-07-04T04:37:44.676Z,17.90
2018-07-04T04:40:28.898Z,17.90
2018-07-04T04:43:13.722Z,18.00
2018-07-04T04:45:58.045Z,18.10
2018-07-04T04:48:42.785Z,18.10
2018-07-04T04:51:26.870Z,18.10
2018-07-04T04:54:11.067Z,18.20
2018-07-04T04:56:55.316Z,18.30
2018-07-04T04:59:39.774Z,18.30
2018-07-04T05:02:23.837Z,18.40
2018-07-04T05:05:08.236Z,18.50
2018-07-04T05:07:52.395Z,18.70
2018-07-04T05:10:36.700Z,19.10
2018-07-04T05:13:22.116Z,19.30
2018-07-04T05:16:06.144Z,19.10
2018-07-04T05:18:50.324Z,19.00
2018-07-04T05:21:34.428Z,19.20
2018-07-04T05:24:18.505Z,19.20
2018-07-04T05:27:02.699Z,19.10
2018-07-04T05:29:46.720Z,19.20
2018-07-04T05:32:30.882Z,19.30
2018-07-04T05:35:15.025Z,19.40
2018-07-04T05:37:58.901Z,19.50
2018-07-04T05:40:42.720Z,19.60
2018-07-04T05:43:26.685Z,19.60
2018-07-04T05:46:10.754Z,19.70
2018-07-04T05:48:54.769Z,19.70
2018-07-04T05:51:38.800Z,19.90
2018-07-04T05:54:23.084Z,19.90
2018-07-04T05:57:07.020Z,20.10
2018-07-04T05:59:51.067Z,20.20
2018-07-04T06:02:35.099Z,20.20
2018-07-04T06:05:19.348Z,20.30
2018-07-04T06:08:03.318Z,20.40
2018-07-04T06:10:47.308Z,20.40
2018-07-04T06:13:31.646Z,20.50
2018-07-04T06:16:15.548Z,20.70
2018-07-04T06:18:59.561Z,20.70
2018-07-04T06:21:43.581Z,20.80
2018-07-04T06:24:27.692Z,20.90
2018-07-04T06:27:11.907Z,20.90
2018-07-04T06:29:55.828Z,21.00
2018-07-04T06:32:39.899Z,21.00
2018-07-04T06:35:23.961Z,21.10
2018-07-04T06:37:55.542Z,21.20
2018-07-04T06:42:59.233Z,21.30
2018-07-04T06:45:30.884Z,21.30
2018-07-04T06:48:02.543Z,21.40
2018-07-04T06:50:34.301Z,21.40
2018-07-04T06:53:06.094Z,21.40
2018-07-04T06:55:37.796Z,21.50
2018-07-04T06:58:09.625Z,21.60
2018-07-04T07:00:41.377Z,21.60
2018-07-04T07:03:25.815Z,21.60
2018-07-04T07:06:10.367Z,21.70
2018-07-04T07:08:54.606Z,21.80
2018-07-04T07:11:38.779Z,21.90
2018-07-04T07:14:23.326Z,21.90
2018-07-04T07:17:07.465Z,21.90
2018-07-04T07:19:51.912Z,22.00
2018-07-04T07:22:37.111Z,22.10
2018-07-04T07:25:21.493Z,22.30
2018-07-04T07:28:05.804Z,22.40
2018-07-04T07:30:50.152Z,22.60
2018-07-04T07:33:34.131Z,22.50
2018-07-04T07:36:18.333Z,22.50
2018-07-04T07:39:02.892Z,22.60
2018-07-04T07:41:47.026Z,22.60
2018-07-04T07:44:32.549Z,22.60
2018-07-04T07:47:16.650Z,22.70
2018-07-04T07:50:00.810Z,22.80
2018-07-04T07:52:44.803Z,22.80
2018-07-04T07:55:29.319Z,22.90
2018-07-04T07:58:13.400Z,23.00
2018-07-04T08:03:36.190Z,22.90
2018-07-04T08:06:21.027Z,23.00
2018-07-04T08:09:05.434Z,23.00
2018-07-04T08:11:49.915Z,23.10
2018-07-04T08:14:34.397Z,23.10
2018-07-04T08:17:18.722Z,23.20
2018-07-04T08:20:03.128Z,23.40
2018-07-04T08:22:47.377Z,23.50
2018-07-04T08:25:31.386Z,23.60
2018-07-04T08:28:15.521Z,23.60
2018-07-04T08:30:59.799Z,23.70
2018-07-04T08:33:43.835Z,23.70
2018-07-04T08:36:28.026Z,23.80
2018-07-04T08:39:12.434Z,23.70
2018-07-04T08:41:56.640Z,23.70
2018-07-04T08:44:40.849Z,23.70
2018-07-04T08:47:25.130Z,23.80
2018-07-04T08:50:09.501Z,24.00
2018-07-04T08:52:53.849Z,24.10
2018-07-04T08:55:38.021Z,24.00
2018-07-04T08:58:22.536Z,24.20
2018-07-04T09:01:06.619Z,24.30
2018-07-04T09:03:50.776Z,24.50
2018-07-04T09:06:35.409Z,24.50
2018-07-04T09:09:19.629Z,24.50
2018-07-04T09:12:03.840Z,24.60
2018-07-04T09:14:48.030Z,24.70
2018-07-04T09:17:32.172Z,24.70
2018-07-04T09:20:16.262Z,24.70
2018-07-04T09:23:00.581Z,24.80
2018-07-04T09:25:44.796Z,24.80
2018-07-04T09:28:29.498Z,25.10
2018-07-04T09:31:14.264Z,24.90
2018-07-04T09:33:58.727Z,25.10
2018-07-04T09:36:43.264Z,25.10
2018-07-04T09:39:27.486Z,25.10
2018-07-04T09:42:11.502Z,25.10
2018-07-04T09:44:55.813Z,25.20
2018-07-04T09:50:18.432Z,25.40
2018-07-04T09:53:02.760Z,25.60
2018-07-04T09:55:47.226Z,25.50
2018-07-04T09:58:31.870Z,25.40
2018-07-04T10:01:22.583Z,25.50
2018-07-04T10:04:06.833Z,25.70
2018-07-04T10:06:50.960Z,25.80
2018-07-04T10:09:35.620Z,25.70
2018-07-04T10:12:20.068Z,25.80
2018-07-04T10:15:04.586Z,26.00
2018-07-04T10:20:27.887Z,26.10
2018-07-04T10:23:12.413Z,26.20
2018-07-04T10:25:56.809Z,26.10
2018-07-04T10:28:41.003Z,26.00
2018-07-04T10:31:25.186Z,26.10
2018-07-04T10:34:09.408Z,26.30
2018-07-04T10:36:53.638Z,26.50
2018-07-04T10:39:38.381Z,26.40
2018-07-04T10:42:22.766Z,26.30
2018-07-04T10:45:07.210Z,26.30
2018-07-04T10:47:52.297Z,26.50
2018-07-04T10:50:36.566Z,26.80
2018-07-04T10:53:20.662Z,26.70
2018-07-04T10:56:05.495Z,26.90
2018-07-04T10:58:49.579Z,27.00
2018-07-04T11:01:33.961Z,26.70
2018-07-04T11:04:18.163Z,26.60
2018-07-04T11:07:02.672Z,26.80
2018-07-04T11:09:46.857Z,26.80
2018-07-04T11:15:09.784Z,26.90
2018-07-04T11:20:32.846Z,27.00
2018-07-04T11:23:17.019Z,27.00
2018-07-04T11:26:01.081Z,27.20
2018-07-04T11:28:45.279Z,27.40
2018-07-04T11:31:29.328Z,27.50
2018-07-04T11:34:13.633Z,27.70
2018-07-04T11:36:57.995Z,27.80
2018-07-04T11:39:42.278Z,27.80
2018-07-04T11:42:26.304Z,27.90
2018-07-04T11:45:10.804Z,27.50
2018-07-04T11:47:42.411Z,27.60
2018-07-04T11:50:14.399Z,27.90
2018-07-04T11:52:46.243Z,28.10
2018-07-04T11:55:18.030Z,27.90
2018-07-04T11:57:49.735Z,27.80
2018-07-04T12:00:21.576Z,27.80
2018-07-04T12:02:53.127Z,27.80
2018-07-04T12:05:37.406Z,28.00
2018-07-04T12:08:09.286Z,27.90
2018-07-04T12:10:41.603Z,27.80
2018-07-04T12:13:13.354Z,27.90
2018-07-04T12:15:45.739Z,28.10
2018-07-04T12:18:17.556Z,28.10
2018-07-04T12:20:49.346Z,28.30
2018-07-04T12:23:21.165Z,28.30
2018-07-04T12:25:53.035Z,28.20
2018-07-04T12:28:24.896Z,28.20
2018-07-04T12:30:56.698Z,28.20
2018-07-04T12:33:28.773Z,28.20
2018-07-04T12:36:00.608Z,28.70
2018-07-04T12:38:32.561Z,28.90
2018-07-04T12:43:36.976Z,29.10
2018-07-04T12:46:09.287Z,29.10
2018-07-04T12:48:41.292Z,29.00
2018-07-04T12:51:13.039Z,29.10
2018-07-04T12:53:59.920Z,29.40
2018-07-04T12:56:47.718Z,29.00
2018-07-04T12:59:33.209Z,29.10
2018-07-04T13:02:20.911Z,29.30
2018-07-04T13:05:05.603Z,29.30
2018-07-04T13:07:51.214Z,29.30
2018-07-04T13:10:36.355Z,29.50
2018-07-04T13:13:22.145Z,29.00
2018-07-04T13:16:07.668Z,29.20
2018-07-04T13:18:54.484Z,29.50
2018-07-04T13:21:40.732Z,29.40
2018-07-04T13:24:25.374Z,29.40
2018-07-04T13:27:09.618Z,29.30
2018-07-04T13:29:53.890Z,29.30
2018-07-04T13:32:38.280Z,29.60
2018-07-04T13:35:22.628Z,29.50
2018-07-04T13:38:07.037Z,29.40
2018-07-04T13:40:51.342Z,29.30
2018-07-04T13:43:35.542Z,29.70
2018-07-04T13:46:19.634Z,29.70
2018-07-04T13:49:03.995Z,29.70
2018-07-04T13:51:49.198Z,29.40
2018-07-04T13:54:33.986Z,29.80
2018-07-04T13:57:18.175Z,29.70
2018-07-04T14:00:02.844Z,29.60
2018-07-04T14:02:47.303Z,29.50
2018-07-04T14:05:31.739Z,29.50
2018-07-04T14:08:15.953Z,29.90
2018-07-04T14:11:00.379Z,29.60
2018-07-04T14:13:44.700Z,29.80
2018-07-04T14:16:28.750Z,29.90
2018-07-04T14:19:13.229Z,30.10
2018-07-04T14:24:36.175Z,29.90
2018-07-04T14:27:20.318Z,30.10
2018-07-04T14:30:04.527Z,29.80
2018-07-04T14:32:48.846Z,30.00
2018-07-04T14:35:33.106Z,29.90
2018-07-04T14:38:17.672Z,29.80
2018-07-04T14:41:01.979Z,29.60
2018-07-04T14:43:46.354Z,29.60
2018-07-04T14:46:30.721Z,29.80
2018-07-04T14:49:15.205Z,30.00
2018-07-04T14:51:59.653Z,30.10
2018-07-04T14:54:44.041Z,30.10
2018-07-04T14:57:28.431Z,30.20
2018-07-04T15:00:12.986Z,30.00
2018-07-04T15:02:57.089Z,29.80
2018-07-04T15:05:41.392Z,29.90
2018-07-04T15:08:25.696Z,29.80
2018-07-04T15:11:10.314Z,29.80
2018-07-04T15:13:54.808Z,29.80
2018-07-04T15:16:38.870Z,30.10
2018-07-04T15:19:23.465Z,30.30
2018-07-04T15:22:07.639Z,30.50
2018-07-04T15:24:51.830Z,30.00
2018-07-04T15:27:36.152Z,29.80
2018-07-04T15:30:20.669Z,29.80
2018-07-04T15:33:04.748Z,30.10
2018-07-04T15:35:48.821Z,29.90
2018-07-04T15:38:33.109Z,30.00
2018-07-04T15:41:17.576Z,30.00
2018-07-04T15:44:01.888Z,30.10
2018-07-04T15:46:46.073Z,29.90
2018-07-04T15:49:30.249Z,29.80
2018-07-04T15:52:14.417Z,29.80
2018-07-04T15:54:58.519Z,29.70
2018-07-04T15:57:42.558Z,29.70
2018-07-04T16:00:26.714Z,29.70
2018-07-04T16:03:12.331Z,30.00
2018-07-04T16:05:56.738Z,30.20
2018-07-04T16:08:40.853Z,30.10
2018-07-04T16:11:24.972Z,30.00
2018-07-04T16:14:09.758Z,29.80
2018-07-04T16:16:53.994Z,30.00
2018-07-04T16:19:39.370Z,30.10
2018-07-04T16:22:23.912Z,30.20
2018-07-04T16:25:08.221Z,30.30
2018-07-04T16:27:52.645Z,30.10
2018-07-04T16:30:37.090Z,29.90
2018-07-04T16:33:21.349Z,29.80
2018-07-04T16:36:05.668Z,29.80
2018-07-04T16:38:50.090Z,29.90
2018-07-04T16:41:34.743Z,29.80
2018-07-04T16:44:20.570Z,29.90
2018-07-04T16:47:05.034Z,30.00
2018-07-04T16:49:49.301Z,29.90
2018-07-04T16:52:33.869Z,30.00
2018-07-04T16:55:18.114Z,29.90
2018-07-04T16:58:02.223Z,29.90
2018-07-04T17:00:46.378Z,30.00
2018-07-04T17:03:30.609Z,29.90
2018-07-04T17:06:14.742Z,29.80
2018-07-04T17:08:58.926Z,29.70
2018-07-04T17:11:43.316Z,29.60
2018-07-04T17:14:27.506Z,29.60
2018-07-04T17:17:11.667Z,29.60
2018-07-04T17:19:55.780Z,29.60
2018-07-04T17:22:40.100Z,29.50
2018-07-04T17:25:24.553Z,29.40
2018-07-04T17:28:08.830Z,29.40
2018-07-04T17:30:53.118Z,29.30
2018-07-04T17:33:37.374Z,29.30
2018-07-04T17:36:21.455Z,29.30
2018-07-04T17:39:06.203Z,29.20
2018-07-04T17:41:50.551Z,29.00
2018-07-04T17:44:34.815Z,29.00
2018-07-04T17:47:18.798Z,28.90
2018-07-04T17:50:02.783Z,28.90
2018-07-04T17:52:48.306Z,28.80
2018-07-04T17:55:32.359Z,28.80
2018-07-04T17:58:16.521Z,28.70
2018-07-04T18:01:00.730Z,28.70
2018-07-04T18:03:44.823Z,28.50
2018-07-04T18:06:30.400Z,28.50
2018-07-04T18:09:14.394Z,28.40
2018-07-04T18:11:58.395Z,28.40
2018-07-04T18:14:42.432Z,28.30
2018-07-04T18:17:26.662Z,28.30
2018-07-04T18:20:10.653Z,28.30
2018-07-04T18:22:55.519Z,28.10
2018-07-04T18:25:39.684Z,28.00
2018-07-04T18:28:23.625Z,28.00
2018-07-04T18:31:07.843Z,27.90
2018-07-04T18:33:53.244Z,27.80
2018-07-04T18:36:37.657Z,27.80
2018-07-04T18:39:23.570Z,27.60
2018-07-04T18:42:18.431Z,27.60
2018-07-04T18:45:02.741Z,27.50
2018-07-04T18:47:46.585Z,27.50
2018-07-04T18:50:30.586Z,27.40
2018-07-04T18:53:14.569Z,27.30
2018-07-04T18:58:37.388Z,27.20
2018-07-04T19:01:21.323Z,27.10
2018-07-04T19:04:05.357Z,27.10
2018-07-04T19:06:49.463Z,27.10
2018-07-04T19:09:35.430Z,27.00
2018-07-04T19:12:29.569Z,26.90
2018-07-04T19:15:13.804Z,26.90
2018-07-04T19:17:59.055Z,26.90
2018-07-04T19:20:46.335Z,26.80
2018-07-04T19:23:31.588Z,26.80
2018-07-04T19:26:17.905Z,26.70
2018-07-04T19:29:08.025Z,26.60
2018-07-04T19:31:59.032Z,26.50
2018-07-04T19:34:44.215Z,26.50
2018-07-04T19:37:29.757Z,26.40
2018-07-04T19:40:15.295Z,26.40
2018-07-04T19:43:15.466Z,26.30
2018-07-04T19:45:59.774Z,26.30
2018-07-04T19:48:48.615Z,26.30
2018-07-04T19:54:13.053Z,26.10
2018-07-04T19:56:58.808Z,26.10
2018-07-04T19:59:44.856Z,25.90
2018-07-04T20:02:28.854Z,25.90
2018-07-04T20:05:13.129Z,25.80
2018-07-04T20:10:36.486Z,25.70
2018-07-04T20:13:22.264Z,25.60
2018-07-04T20:18:45.563Z,25.50
2018-07-04T20:21:29.932Z,25.50
2018-07-04T20:24:13.917Z,25.30
2018-07-04T20:27:00.955Z,25.20
2018-07-04T20:29:46.489Z,25.10
2018-07-04T20:32:30.730Z,25.00
2018-07-04T20:35:14.922Z,24.80
2018-07-04T20:38:00.268Z,24.70
2018-07-04T20:40:44.551Z,24.60
2018-07-04T20:43:30.534Z,24.50
2018-07-04T20:46:16.023Z,24.40
2018-07-04T20:49:01.747Z,24.30
2018-07-04T20:54:25.026Z,24.20
2018-07-04T20:57:10.487Z,24.20
2018-07-04T20:59:57.701Z,24.10
2018-07-04T21:02:42.981Z,23.90
2018-07-04T21:05:29.909Z,23.90
2018-07-04T21:08:14.567Z,23.80
2018-07-04T21:11:00.129Z,23.70
2018-07-04T21:13:46.860Z,23.70
2018-07-04T21:16:30.934Z,23.60
2018-07-04T21:19:15.177Z,23.50
2018-07-04T21:21:59.222Z,23.40
2018-07-04T21:24:43.257Z,23.40
2018-07-04T21:27:27.628Z,23.30
2018-07-04T21:30:17.939Z,23.30
2018-07-04T21:33:02.462Z,23.20
2018-07-04T21:35:48.104Z,23.20
2018-07-04T21:38:32.615Z,23.10
2018-07-04T21:41:16.734Z,23.10
2018-07-04T21:46:39.913Z,23.00
2018-07-04T21:49:24.079Z,22.90
2018-07-04T21:52:08.189Z,22.80
2018-07-04T21:54:52.222Z,22.70
2018-07-04T21:57:36.179Z,22.70
2018-07-04T22:00:22.456Z,22.70
2018-07-04T22:03:06.517Z,22.60
2018-07-04T22:05:50.644Z,22.60
2018-07-04T22:08:34.599Z,22.50
2018-07-04T22:11:18.626Z,22.50
2018-07-04T22:14:02.755Z,22.50
2018-07-04T22:16:46.788Z,22.40
2018-07-04T22:19:30.690Z,22.40
2018-07-04T22:22:14.762Z,22.30
2018-07-04T22:24:58.578Z,22.20
2018-07-04T22:27:42.797Z,22.10
2018-07-04T22:30:27.045Z,22.10
2018-07-04T22:33:11.056Z,22.10
2018-07-04T22:35:55.138Z,22.10
2018-07-04T22:38:39.029Z,22.00
2018-07-04T22:41:23.107Z,22.00
2018-07-04T22:44:07.564Z,22.00
2018-07-04T22:46:51.843Z,21.90
2018-07-04T22:49:35.936Z,21.90
2018-07-04T22:52:19.906Z,21.90
2018-07-04T22:55:04.367Z,21.90
2018-07-04T22:57:48.448Z,21.80
2018-07-04T23:00:32.482Z,21.80
2018-07-04T23:03:16.439Z,21.80
2018-07-04T23:06:00.734Z,21.70
2018-07-04T23:08:45.049Z,21.70
2018-07-04T23:11:29.398Z,21.70
2018-07-04T23:14:13.357Z,21.60
2018-07-04T23:16:57.226Z,21.60
2018-07-04T23:19:41.398Z,21.60
2018-07-04T23:22:25.683Z,21.60
2018-07-04T23:25:09.569Z,21.50
2018-07-04T23:27:53.660Z,21.50
2018-07-04T23:30:37.506Z,21.40
2018-07-04T23:33:21.339Z,21.40
2018-07-04T23:36:06.477Z,21.30
2018-07-04T23:38:50.376Z,21.30
2018-07-04T23:41:34.383Z,21.30
2018-07-04T23:44:18.501Z,21.30
2018-07-04T23:47:02.702Z,21.30
2018-07-04T23:49:46.739Z,21.30
2018-07-04T23:52:31.085Z,21.30
2018-07-04T23:55:15.071Z,21.30
2018-07-04T23:57:59.211Z,21.30
